Time;durP1;ratioP1;P1;durP2;ratioP2;P2;SDS_P1;SDS_P2;PMS_P1;PMS_P2;Temp;Humidity;BMP_temperature;BMP_pressure;BME280_temperature;BME280_humidity;BME280_pressure;Samples;Min_cycle;Max_cycle;Signal;HPM_P1;HPM_P2
2021/06/01 00:00:36;;;;;;;17.15;14.98;;;;;;;;;;5014009;28;20446;-93
2021/06/01 00:03:02;;;;;;;18.07;15.97;;;;;;;;;;5006553;28;20423;-93
2021/06/01 00:05:30;;;;;;;17.45;15.70;;;;;;;;;;5007359;28;20949;-91
2021/06/01 00:07:57;;;;;;;16.90;15.30;;;;;;;;;;5001696;28;20464;-93
2021/06/01 00:10:24;;;;;;;16.83;15.23;;;;;;;;;;5006400;28;20503;-93
2021/06/01 00:12:50;;;;;;;16.42;14.70;;;;;;;;;;5011335;28;20441;-93
2021/06/01 00:15:17;;;;;;;18.60;15.73;;;;;;;;;;5008350;28;20797;-92
2021/06/01 00:17:44;;;;;;;17.13;15.43;;;;;;;;;;5007340;28;20990;-94
2021/06/01 00:20:11;;;;;;;16.90;15.10;;;;;;;;;;5008817;28;20510;-93
2021/06/01 00:22:39;;;;;;;16.85;15.15;;;;;;;;;;5012862;28;20397;-93
2021/06/01 00:25:07;;;;;;;16.50;14.90;;;;;;;;;;5011166;28;20403;-93
2021/06/01 00:27:33;;;;;;;16.65;15.05;;;;;;;;;;5009854;28;20853;-92
2021/06/01 00:30:00;;;;;;;16.95;15.23;;;;;;;;;;5010478;28;20417;-93
2021/06/01 00:32:26;;;;;;;16.35;14.60;;;;;;;;;;5013989;28;20407;-93
2021/06/01 00:34:53;;;;;;;16.27;14.65;;;;;;;;;;5002755;28;20508;-94
2021/06/01 00:37:19;;;;;;;17.02;15.23;;;;;;;;;;5008336;28;20403;-92
2021/06/01 00:39:47;;;;;;;16.75;14.98;;;;;;;;;;5013154;28;20419;-94
2021/06/01 00:42:14;;;;;;;16.05;14.52;;;;;;;;;;5010219;28;20490;-93
2021/06/01 00:44:40;;;;;;;16.85;15.02;;;;;;;;;;5012010;28;20407;-94
2021/06/01 00:47:07;;;;;;;16.13;14.43;;;;;;;;;;5010797;28;20406;-93
2021/06/01 00:49:33;;;;;;;16.67;14.98;;;;;;;;;;5009537;28;20530;-94
2021/06/01 00:52:00;;;;;;;15.65;14.10;;;;;;;;;;5008151;28;20416;-93
2021/06/01 00:54:27;;;;;;;15.75;14.15;;;;;;;;;;5012171;28;20438;-92
2021/06/01 00:56:55;;;;;;;15.77;14.27;;;;;;;;;;5019077;28;20409;-93
2021/06/01 00:59:22;;;;;;;15.88;14.20;;;;;;;;;;5016738;28;20411;-93
2021/06/01 01:01:48;;;;;;;14.82;13.48;;;;;;;;;;5013480;28;20399;-93
2021/06/01 01:04:15;;;;;;;15.82;14.32;;;;;;;;;;5012773;28;20522;-93
2021/06/01 01:06:55;;;;;;;15.23;13.73;;;;;;;;;;5017277;28;20419;-93
2021/06/01 01:09:22;;;;;;;16.88;14.52;;;;;;;;;;5012597;28;20415;-93
2021/06/01 01:11:58;;;;;;;15.70;14.20;;;;;;;;;;5013274;28;20896;-92
2021/06/01 01:14:28;;;;;;;16.00;14.43;;;;;;;;;;5013233;28;20406;-93
2021/06/01 01:16:58;;;;;;;14.70;13.30;;;;;;;;;;5019209;28;21154;-93
2021/06/01 01:19:54;;;;;;;14.57;13.18;;;;;;;;;;4991136;28;20888;-93
2021/06/01 01:22:22;;;;;;;14.60;13.13;;;;;;;;;;4997456;28;20413;-94
2021/06/01 01:24:54;;;;;;;14.90;13.35;;;;;;;;;;5010772;28;20506;-93
2021/06/01 01:27:39;;;;;;;16.10;13.88;;;;;;;;;;5013780;28;20406;-92
2021/06/01 01:30:10;;;;;;;14.85;13.35;;;;;;;;;;5011173;28;20406;-93
2021/06/01 01:32:46;;;;;;;14.68;13.25;;;;;;;;;;5009697;28;20403;-93
2021/06/01 01:35:17;;;;;;;14.80;13.32;;;;;;;;;;5010065;28;20781;-93
2021/06/01 01:37:46;;;;;;;14.10;12.80;;;;;;;;;;5012129;28;20764;-94
2021/06/01 01:40:13;;;;;;;14.27;12.98;;;;;;;;;;5005200;28;20411;-93
2021/06/01 01:42:49;;;;;;;14.15;12.85;;;;;;;;;;5010821;28;20465;-94
2021/06/01 01:45:21;;;;;;;14.47;13.07;;;;;;;;;;5004009;28;20907;-91
2021/06/01 01:50:38;;;;;;;14.82;13.38;;;;;;;;;;5007420;28;20825;-93
2021/06/01 01:53:04;;;;;;;15.13;12.70;;;;;;;;;;5016940;28;20407;-93
2021/06/01 01:55:32;;;;;;;14.75;13.35;;;;;;;;;;4990842;28;20421;-93
2021/06/01 01:57:58;;;;;;;14.27;12.80;;;;;;;;;;5012463;28;20411;-93
2021/06/01 02:00:26;;;;;;;13.93;12.60;;;;;;;;;;5013636;28;20901;-93
2021/06/01 02:02:53;;;;;;;14.63;12.65;;;;;;;;;;5013736;28;20921;-93
2021/06/01 02:05:20;;;;;;;14.27;12.98;;;;;;;;;;5017780;28;20882;-93
2021/06/01 02:07:48;;;;;;;14.77;13.10;;;;;;;;;;5017145;28;20621;-93
2021/06/01 02:10:15;;;;;;;14.75;12.88;;;;;;;;;;5009159;28;20415;-93
2021/06/01 02:12:41;;;;;;;14.55;13.10;;;;;;;;;;5013458;28;20417;-93
2021/06/01 02:15:10;;;;;;;14.27;12.80;;;;;;;;;;5009031;28;20409;-93
2021/06/01 02:17:37;;;;;;;13.25;11.85;;;;;;;;;;5008891;28;20806;-93
2021/06/01 02:20:06;;;;;;;13.55;12.18;;;;;;;;;;5010308;28;20413;-93
2021/06/01 02:25:25;;;;;;;13.65;12.35;;;;;;;;;;5017249;28;20406;-93
2021/06/01 02:27:57;;;;;;;13.57;12.23;;;;;;;;;;5013218;28;20415;-92
2021/06/01 02:30:29;;;;;;;13.52;12.13;;;;;;;;;;5008679;28;20404;-93
2021/06/01 02:32:58;;;;;;;13.50;12.05;;;;;;;;;;5012109;28;20758;-93
2021/06/01 02:35:29;;;;;;;14.13;12.68;;;;;;;;;;5008345;28;20403;-91
2021/06/01 02:37:59;;;;;;;14.98;13.50;;;;;;;;;;5008578;28;20407;-93
2021/06/01 02:40:29;;;;;;;15.02;13.52;;;;;;;;;;4988152;28;20776;-93
2021/06/01 02:42:57;;;;;;;14.77;13.38;;;;;;;;;;5016275;28;20911;-91
2021/06/01 02:45:24;;;;;;;15.20;13.50;;;;;;;;;;5017991;28;20492;-93
2021/06/01 02:47:51;;;;;;;14.47;13.00;;;;;;;;;;5012892;28;20461;-93
2021/06/01 02:50:19;;;;;;;14.07;12.63;;;;;;;;;;5009562;28;20546;-93
2021/06/01 02:52:47;;;;;;;14.07;12.60;;;;;;;;;;4992504;28;20764;-93
2021/06/01 02:55:16;;;;;;;14.00;12.50;;;;;;;;;;5016031;28;20447;-93
2021/06/01 02:57:44;;;;;;;14.00;12.60;;;;;;;;;;5008549;28;20399;-92
2021/06/01 03:00:15;;;;;;;13.75;12.38;;;;;;;;;;5003524;28;20803;-92
2021/06/01 03:02:41;;;;;;;13.60;12.23;;;;;;;;;;5008104;28;20879;-93
2021/06/01 03:05:09;;;;;;;12.88;11.52;;;;;;;;;;5005885;28;20414;-92
2021/06/01 03:07:38;;;;;;;14.32;11.60;;;;;;;;;;5008606;28;20409;-92
2021/06/01 03:10:07;;;;;;;12.65;11.02;;;;;;;;;;5021391;28;20408;-92
2021/06/01 03:12:45;;;;;;;12.48;11.02;;;;;;;;;;4989661;28;20409;-93
2021/06/01 03:15:14;;;;;;;13.60;11.90;;;;;;;;;;4994494;28;20402;-92
2021/06/01 03:17:41;;;;;;;12.90;11.63;;;;;;;;;;5006182;28;20445;-93
2021/06/01 03:20:09;;;;;;;12.50;11.20;;;;;;;;;;4990127;28;20424;-93
2021/06/01 03:22:36;;;;;;;12.27;10.97;;;;;;;;;;5013667;28;20418;-92
2021/06/01 03:25:04;;;;;;;13.15;11.80;;;;;;;;;;5011759;28;20917;-93
2021/06/01 03:27:31;;;;;;;14.00;11.57;;;;;;;;;;4996190;28;20431;-93
2021/06/01 03:29:57;;;;;;;13.10;11.43;;;;;;;;;;5011204;28;20465;-93
2021/06/01 03:32:26;;;;;;;12.80;11.53;;;;;;;;;;4995939;28;20889;-93
2021/06/01 03:34:53;;;;;;;12.50;11.30;;;;;;;;;;5005307;28;20426;-92
2021/06/01 03:37:20;;;;;;;11.85;10.55;;;;;;;;;;5008974;28;20403;-93
2021/06/01 03:39:47;;;;;;;13.88;10.73;;;;;;;;;;4993343;28;20505;-91
2021/06/01 03:42:13;;;;;;;11.93;10.73;;;;;;;;;;5003650;28;20407;-93
2021/06/01 03:44:41;;;;;;;11.90;10.80;;;;;;;;;;5014668;28;20459;-93
2021/06/01 03:47:08;;;;;;;12.30;11.00;;;;;;;;;;5013140;28;20426;-93
2021/06/01 03:49:37;;;;;;;12.35;11.15;;;;;;;;;;5010796;28;20401;-93
2021/06/01 03:52:07;;;;;;;14.75;12.05;;;;;;;;;;5003537;28;20415;-93
2021/06/01 03:54:34;;;;;;;12.70;11.23;;;;;;;;;;5007247;28;20432;-93
2021/06/01 03:57:00;;;;;;;13.57;12.23;;;;;;;;;;5006307;28;20418;-93
2021/06/01 03:59:27;;;;;;;13.90;12.35;;;;;;;;;;5003076;28;20417;-94
2021/06/01 04:01:53;;;;;;;14.57;12.68;;;;;;;;;;5016865;28;20425;-92
2021/06/01 04:04:20;;;;;;;14.02;12.40;;;;;;;;;;5003168;28;20543;-93
2021/06/01 04:06:48;;;;;;;15.60;12.73;;;;;;;;;;5000951;28;21087;-93
2021/06/01 04:09:15;;;;;;;14.90;12.20;;;;;;;;;;4989669;28;20987;-92
2021/06/01 04:11:43;;;;;;;14.57;12.40;;;;;;;;;;5001015;28;20920;-93
2021/06/01 04:14:10;;;;;;;14.90;12.75;;;;;;;;;;5004623;28;20419;-92
2021/06/01 04:16:36;;;;;;;14.52;12.70;;;;;;;;;;5013208;28;20419;-93
2021/06/01 04:19:03;;;;;;;14.85;13.32;;;;;;;;;;5013471;28;20405;-92
2021/06/01 04:21:31;;;;;;;15.82;13.00;;;;;;;;;;5003906;28;20419;-93
2021/06/01 04:23:59;;;;;;;14.23;12.88;;;;;;;;;;5004462;28;20411;-92
2021/06/01 04:26:28;;;;;;;14.13;12.73;;;;;;;;;;4999977;28;20407;-92
2021/06/01 04:28:55;;;;;;;14.50;12.95;;;;;;;;;;5010225;28;20441;-93
2021/06/01 04:31:22;;;;;;;15.02;13.50;;;;;;;;;;5011267;28;20407;-93
2021/06/01 04:36:24;;;;;;;14.88;13.38;;;;;;;;;;5006485;28;20415;-81
2021/06/01 04:38:51;;;;;;;14.63;13.07;;;;;;;;;;5006670;28;20490;-82
2021/06/01 04:41:19;;;;;;;14.82;13.20;;;;;;;;;;5005814;28;20423;-82
2021/06/01 04:43:45;;;;;;;14.43;12.93;;;;;;;;;;5006084;28;20907;-82
2021/06/01 04:46:13;;;;;;;16.42;13.80;;;;;;;;;;5003581;28;20403;-81
2021/06/01 04:48:39;;;;;;;14.70;13.20;;;;;;;;;;5005711;28;20875;-81
2021/06/01 04:51:16;;;;;;;15.15;13.55;;;;;;;;;;5005677;28;20401;-81
2021/06/01 04:53:44;;;;;;;15.35;13.80;;;;;;;;;;5006462;28;20487;-83
2021/06/01 04:56:10;;;;;;;18.27;14.48;;;;;;;;;;5006089;28;20417;-84
2021/06/01 04:58:38;;;;;;;15.50;13.90;;;;;;;;;;5005978;28;20902;-85
2021/06/01 05:01:04;;;;;;;16.23;14.52;;;;;;;;;;5006464;28;20421;-84
2021/06/01 05:03:31;;;;;;;15.47;13.80;;;;;;;;;;5004003;28;20771;-84
2021/06/01 05:05:58;;;;;;;16.05;14.35;;;;;;;;;;5004497;28;20418;-84
2021/06/01 05:08:24;;;;;;;16.15;14.55;;;;;;;;;;5008342;28;20406;-84
2021/06/01 05:10:51;;;;;;;15.73;13.98;;;;;;;;;;5008331;28;21224;-84
2021/06/01 05:13:18;;;;;;;15.13;13.63;;;;;;;;;;5006604;28;20498;-84
2021/06/01 05:15:48;;;;;;;15.40;13.90;;;;;;;;;;5006435;28;20403;-84
2021/06/01 05:18:15;;;;;;;16.55;14.40;;;;;;;;;;5003998;28;20415;-85
2021/06/01 05:20:42;;;;;;;16.70;14.50;;;;;;;;;;5007285;28;20435;-82
2021/06/01 05:23:08;;;;;;;16.00;14.50;;;;;;;;;;5011874;28;20402;-82
2021/06/01 05:25:35;;;;;;;17.17;15.18;;;;;;;;;;5012208;28;20409;-84
2021/06/01 05:28:01;;;;;;;16.88;15.23;;;;;;;;;;5017184;28;20499;-82
2021/06/01 05:30:34;;;;;;;16.40;14.90;;;;;;;;;;5018502;28;20910;-84
2021/06/01 05:35:51;;;;;;;16.73;15.02;;;;;;;;;;5025366;28;20442;-84
2021/06/01 05:38:18;;;;;;;16.90;15.30;;;;;;;;;;5016380;28;20429;-84
2021/06/01 05:40:45;;;;;;;16.30;14.63;;;;;;;;;;5005949;28;21368;-84
2021/06/01 05:43:11;;;;;;;16.33;14.63;;;;;;;;;;5006567;28;20415;-84
2021/06/01 05:45:38;;;;;;;16.58;14.77;;;;;;;;;;5013495;28;20429;-84
2021/06/01 05:48:07;;;;;;;15.50;14.10;;;;;;;;;;5009389;28;20412;-85
2021/06/01 05:50:34;;;;;;;16.25;14.70;;;;;;;;;;5007917;28;20419;-85
2021/06/01 05:53:00;;;;;;;17.95;15.18;;;;;;;;;;4996410;28;21571;-84
2021/06/01 05:55:27;;;;;;;16.80;15.02;;;;;;;;;;5004039;28;20708;-85
2021/06/01 05:57:54;;;;;;;16.75;15.15;;;;;;;;;;5001747;28;20417;-84
2021/06/01 06:00:22;;;;;;;17.10;15.45;;;;;;;;;;5001720;28;20439;-84
2021/06/01 06:02:49;;;;;;;18.33;14.82;;;;;;;;;;5003328;28;20414;-85
2021/06/01 06:05:17;;;;;;;16.52;14.80;;;;;;;;;;5007608;28;20506;-85
2021/06/01 06:07:44;;;;;;;15.82;14.18;;;;;;;;;;5011764;28;20407;-84
2021/06/01 06:10:12;;;;;;;16.77;14.02;;;;;;;;;;5008189;28;20407;-84
2021/06/01 06:12:39;;;;;;;16.15;14.48;;;;;;;;;;4993804;28;20417;-84
2021/06/01 06:15:10;;;;;;;15.15;13.65;;;;;;;;;;5010522;28;20467;-84
2021/06/01 06:17:43;;;;;;;15.07;13.60;;;;;;;;;;5006674;28;20805;-84
2021/06/01 06:20:12;;;;;;;15.20;13.50;;;;;;;;;;5007661;28;20447;-84
2021/06/01 06:22:40;;;;;;;16.00;13.23;;;;;;;;;;5007341;28;20452;-83
2021/06/01 06:25:08;;;;;;;19.60;13.53;;;;;;;;;;5006072;28;20403;-85
2021/06/01 06:27:36;;;;;;;17.05;13.40;;;;;;;;;;5005067;28;21236;-84
2021/06/01 06:30:04;;;;;;;16.23;13.55;;;;;;;;;;5003514;28;20401;-85
2021/06/01 06:32:31;;;;;;;14.80;13.20;;;;;;;;;;5009473;28;20415;-84
2021/06/01 06:34:57;;;;;;;20.83;13.52;;;;;;;;;;5007575;28;20418;-85
2021/06/01 06:37:24;;;;;;;14.55;13.05;;;;;;;;;;5006362;28;20885;-84
2021/06/01 06:39:52;;;;;;;17.35;13.70;;;;;;;;;;4998609;28;20405;-85
2021/06/01 06:42:18;;;;;;;16.77;13.52;;;;;;;;;;5000808;28;20414;-84
2021/06/01 06:44:49;;;;;;;16.40;13.73;;;;;;;;;;4998881;28;20411;-85
2021/06/01 06:47:28;;;;;;;16.33;13.02;;;;;;;;;;5001484;28;20816;-84
2021/06/01 06:49:56;;;;;;;15.15;13.10;;;;;;;;;;4999475;28;20412;-83
2021/06/01 06:52:22;;;;;;;16.67;13.50;;;;;;;;;;4998037;28;20460;-84
2021/06/01 06:54:49;;;;;;;14.70;13.20;;;;;;;;;;5002817;28;20431;-83
2021/06/01 06:57:17;;;;;;;15.15;12.77;;;;;;;;;;5003932;28;20506;-83
2021/06/01 06:59:43;;;;;;;18.38;13.27;;;;;;;;;;5005518;28;20405;-83
2021/06/01 07:02:10;;;;;;;15.82;13.02;;;;;;;;;;4998268;28;20892;-83
2021/06/01 07:04:37;;;;;;;14.50;13.00;;;;;;;;;;5003135;28;20504;-83
2021/06/01 07:07:03;;;;;;;18.53;13.57;;;;;;;;;;5001792;28;20412;-83
2021/06/01 07:09:30;;;;;;;15.70;14.10;;;;;;;;;;4999154;28;20423;-83
2021/06/01 07:11:57;;;;;;;15.80;14.00;;;;;;;;;;5007436;28;20406;-84
2021/06/01 07:14:33;;;;;;;15.27;13.70;;;;;;;;;;5001974;28;20421;-84
2021/06/01 07:17:01;;;;;;;14.97;13.47;;;;;;;;;;5006764;28;20409;-84
2021/06/01 07:19:27;;;;;;;14.07;12.57;;;;;;;;;;5003395;28;20461;-84
2021/06/01 07:21:54;;;;;;;14.20;12.90;;;;;;;;;;5007473;28;20907;-84
2021/06/01 07:24:20;;;;;;;14.82;13.00;;;;;;;;;;5001114;28;20403;-84
2021/06/01 07:26:47;;;;;;;14.52;12.48;;;;;;;;;;5007859;28;20407;-84
2021/06/01 07:29:13;;;;;;;14.15;12.85;;;;;;;;;;4995858;28;20406;-84
2021/06/01 07:31:41;;;;;;;14.10;12.70;;;;;;;;;;5003961;28;20453;-84
2021/06/01 07:34:07;;;;;;;14.32;12.82;;;;;;;;;;5007054;28;20400;-84
2021/06/01 07:36:35;;;;;;;14.43;12.80;;;;;;;;;;5004296;28;20427;-84
2021/06/01 07:39:02;;;;;;;14.20;12.90;;;;;;;;;;5002574;28;20488;-84
2021/06/01 07:41:28;;;;;;;15.77;12.77;;;;;;;;;;5002879;28;20898;-84
2021/06/01 07:43:58;;;;;;;13.93;12.50;;;;;;;;;;5001166;28;20492;-84
2021/06/01 07:46:24;;;;;;;14.45;12.95;;;;;;;;;;4995409;28;20408;-84
2021/06/01 07:48:53;;;;;;;14.35;13.00;;;;;;;;;;5000665;28;20423;-84
2021/06/01 07:51:28;;;;;;;14.02;12.63;;;;;;;;;;4997824;28;20900;-84
2021/06/01 07:53:54;;;;;;;13.90;12.60;;;;;;;;;;5006600;28;20429;-84
2021/06/01 07:56:21;;;;;;;14.80;12.55;;;;;;;;;;5007171;28;20874;-84
2021/06/01 07:58:48;;;;;;;14.63;12.50;;;;;;;;;;5001045;28;20422;-86
2021/06/01 08:01:14;;;;;;;13.30;11.77;;;;;;;;;;5006684;28;20430;-87
2021/06/01 08:03:41;;;;;;;14.40;13.00;;;;;;;;;;5007249;28;20810;-87
2021/06/01 08:06:09;;;;;;;13.65;12.10;;;;;;;;;;5004301;28;20818;-87
2021/06/01 08:08:36;;;;;;;16.15;12.02;;;;;;;;;;5003310;28;20770;-88
2021/06/01 08:11:03;;;;;;;12.82;11.32;;;;;;;;;;5014052;28;20407;-87
2021/06/01 08:13:29;;;;;;;12.43;11.23;;;;;;;;;;5007822;28;20433;-88
2021/06/01 08:15:56;;;;;;;12.65;11.35;;;;;;;;;;5009977;28;20856;-87
2021/06/01 08:18:25;;;;;;;12.52;11.23;;;;;;;;;;5010776;28;20418;-87
2021/06/01 08:21:00;;;;;;;12.23;11.00;;;;;;;;;;5007989;28;20873;-87
2021/06/01 08:23:28;;;;;;;11.68;10.57;;;;;;;;;;5012500;28;20412;-87
2021/06/01 08:25:54;;;;;;;11.20;10.10;;;;;;;;;;5011870;28;20529;-87
2021/06/01 08:28:21;;;;;;;12.07;10.73;;;;;;;;;;5009708;28;20414;-87
2021/06/01 08:30:47;;;;;;;13.73;12.43;;;;;;;;;;5007744;28;20672;-86
2021/06/01 08:33:14;;;;;;;12.98;11.68;;;;;;;;;;5009518;28;20823;-87
2021/06/01 08:35:41;;;;;;;11.35;10.25;;;;;;;;;;5016963;28;20949;-88
2021/06/01 08:38:07;;;;;;;11.97;9.50;;;;;;;;;;5014349;28;20417;-88
2021/06/01 08:40:35;;;;;;;10.02;9.13;;;;;;;;;;5011010;28;20422;-88
2021/06/01 08:43:01;;;;;;;9.75;8.75;;;;;;;;;;5015674;28;20446;-87
2021/06/01 08:45:28;;;;;;;8.27;7.43;;;;;;;;;;5013870;28;20433;-88
2021/06/01 08:47:56;;;;;;;6.25;5.68;;;;;;;;;;5016036;28;20807;-88
2021/06/01 08:50:22;;;;;;;6.22;5.45;;;;;;;;;;5006696;28;21110;-87
2021/06/01 08:52:49;;;;;;;7.83;6.43;;;;;;;;;;5011870;28;20399;-87
2021/06/01 08:55:15;;;;;;;11.02;9.88;;;;;;;;;;5013049;28;20399;-88
2021/06/01 08:57:43;;;;;;;9.95;8.95;;;;;;;;;;5009760;28;20473;-88
2021/06/01 09:00:12;;;;;;;10.90;9.80;;;;;;;;;;5014954;28;20411;-87
2021/06/01 09:02:39;;;;;;;10.45;9.45;;;;;;;;;;5011039;28;20761;-87
2021/06/01 09:05:09;;;;;;;11.00;9.52;;;;;;;;;;5011295;28;20484;-87
2021/06/01 09:07:48;;;;;;;10.65;9.55;;;;;;;;;;5012069;28;20461;-88
2021/06/01 09:10:30;;;;;;;10.98;9.95;;;;;;;;;;5014700;28;20872;-87
2021/06/01 09:21:29;;;;;;;8.98;8.02;;;;;;;;;;5016972;28;20431;-86
2021/06/01 09:23:59;;;;;;;10.88;9.50;;;;;;;;;;5016052;28;20408;-87
2021/06/01 09:26:50;;;;;;;10.43;9.43;;;;;;;;;;5020181;28;20488;-87
2021/06/01 09:29:19;;;;;;;10.18;8.90;;;;;;;;;;5014937;28;20500;-88
2021/06/01 09:32:02;;;;;;;9.60;8.70;;;;;;;;;;5011812;28;20415;-86
2021/06/01 09:34:35;;;;;;;9.20;8.30;;;;;;;;;;5012770;28;20416;-87
2021/06/01 09:37:16;;;;;;;8.07;7.27;;;;;;;;;;5012206;28;20410;-87
2021/06/01 09:39:43;;;;;;;9.70;8.60;;;;;;;;;;5005480;28;20411;-87
2021/06/01 09:42:24;;;;;;;9.77;8.37;;;;;;;;;;5009587;28;20475;-82
2021/06/01 09:45:04;;;;;;;7.85;7.05;;;;;;;;;;5012033;28;20412;-83
2021/06/01 09:47:44;;;;;;;8.27;7.47;;;;;;;;;;5018921;28;20401;-84
2021/06/01 09:50:16;;;;;;;10.38;9.38;;;;;;;;;;5014213;28;20411;-82
2021/06/01 09:52:46;;;;;;;10.27;9.27;;;;;;;;;;5014303;28;20430;-81
2021/06/01 09:55:24;;;;;;;9.90;8.98;;;;;;;;;;5014977;28;20414;-82
2021/06/01 09:57:51;;;;;;;12.07;10.88;;;;;;;;;;5015735;28;20838;-83
2021/06/01 10:00:21;;;;;;;10.35;9.13;;;;;;;;;;5017391;28;20407;-83
2021/06/01 10:02:50;;;;;;;9.38;8.35;;;;;;;;;;5010533;28;20410;-83
2021/06/01 10:05:20;;;;;;;10.68;9.68;;;;;;;;;;4999769;28;20412;-82
2021/06/01 10:07:47;;;;;;;10.10;8.70;;;;;;;;;;5011553;28;20467;-82
2021/06/01 10:10:17;;;;;;;8.63;7.72;;;;;;;;;;5007859;28;20399;-82
2021/06/01 10:12:45;;;;;;;9.27;8.38;;;;;;;;;;4995774;28;20401;-82
2021/06/01 10:15:13;;;;;;;9.13;8.30;;;;;;;;;;5005866;28;20411;-82
2021/06/01 10:17:41;;;;;;;8.18;7.32;;;;;;;;;;5006867;28;20409;-82
2021/06/01 10:20:09;;;;;;;8.02;6.57;;;;;;;;;;5006221;28;20405;-82
2021/06/01 10:22:36;;;;;;;7.17;6.47;;;;;;;;;;5006984;28;20411;-83
2021/06/01 10:25:04;;;;;;;8.10;6.60;;;;;;;;;;5007176;28;20442;-82
2021/06/01 10:27:31;;;;;;;7.28;6.57;;;;;;;;;;5004278;28;20404;-83
2021/06/01 10:29:57;;;;;;;7.68;6.80;;;;;;;;;;5005673;28;21232;-83
2021/06/01 10:32:25;;;;;;;8.17;7.43;;;;;;;;;;5006966;28;20407;-82
2021/06/01 10:34:55;;;;;;;10.23;7.57;;;;;;;;;;5002597;28;20415;-82
2021/06/01 10:43:26;;;;;;;8.93;8.02;;;;;;;;;;5013029;28;20402;-83
2021/06/01 10:48:52;;;;;;;6.80;6.13;;;;;;;;;;5023011;28;20442;-82
2021/06/01 10:51:30;;;;;;;8.55;7.65;;;;;;;;;;5028635;28;20506;-82
2021/06/01 10:53:57;;;;;;;8.35;7.50;;;;;;;;;;5006252;28;20411;-83
2021/06/01 10:56:23;;;;;;;8.63;6.90;;;;;;;;;;5007136;28;20419;-82
2021/06/01 10:59:11;;;;;;;9.68;8.70;;;;;;;;;;5003637;28;20399;-82
2021/06/01 11:04:24;;;;;;;10.98;8.98;;;;;;;;;;5009350;28;20990;-83
2021/06/01 11:07:38;;;;;;;9.70;8.70;;;;;;;;;;5008504;28;20413;-83
2021/06/01 11:10:05;;;;;;;10.70;9.53;;;;;;;;;;5009847;28;20409;-81
2021/06/01 11:12:43;;;;;;;10.70;9.70;;;;;;;;;;5011287;28;20416;-83
2021/06/01 11:15:24;;;;;;;11.15;9.35;;;;;;;;;;5006562;28;20404;-83
2021/06/01 11:17:51;;;;;;;10.05;8.95;;;;;;;;;;5008675;28;20425;-82
2021/06/01 11:20:23;;;;;;;11.27;10.18;;;;;;;;;;5012788;28;20444;-84
2021/06/01 11:23:07;;;;;;;9.73;8.73;;;;;;;;;;5012923;28;20652;-83
2021/06/01 11:34:34;;;;;;;10.80;8.80;;;;;;;;;;5002126;28;20854;-85
2021/06/01 11:37:01;;;;;;;8.10;7.30;;;;;;;;;;4996438;28;20410;-85
2021/06/01 11:39:31;;;;;;;9.07;8.05;;;;;;;;;;5003295;28;20419;-84
2021/06/01 11:44:42;;;;;;;9.45;8.45;;;;;;;;;;5000510;28;20902;-84
2021/06/01 11:47:15;;;;;;;8.10;7.30;;;;;;;;;;5003629;28;20401;-83
2021/06/01 11:52:29;;;;;;;9.02;8.13;;;;;;;;;;4997852;28;20705;-82
2021/06/01 11:54:57;;;;;;;8.10;7.28;;;;;;;;;;5003136;28;20467;-83
2021/06/01 11:57:28;;;;;;;8.52;7.07;;;;;;;;;;5008145;28;20415;-82
2021/06/01 12:02:51;;;;;;;7.93;7.13;;;;;;;;;;5004435;28;20418;-82
2021/06/01 12:11:10;;;;;;;6.55;5.65;;;;;;;;;;5005731;28;20478;-84
2021/06/01 12:11:21;;;;;;;7.03;6.40;;;;;;;;;;5005790;28;20964;-83
2021/06/01 12:13:55;;;;;;;5.70;4.68;;;;;;;;;;5004535;28;20409;-83
2021/06/01 12:19:09;;;;;;;5.15;4.65;;;;;;;;;;5010040;28;20401;-84
2021/06/01 12:21:38;;;;;;;4.95;4.18;;;;;;;;;;5006193;28;20964;-83
2021/06/01 12:24:08;;;;;;;5.47;4.32;;;;;;;;;;5015478;28;20459;-83
2021/06/01 12:26:46;;;;;;;5.45;4.20;;;;;;;;;;5013622;28;20416;-85
2021/06/01 12:32:09;;;;;;;4.72;4.10;;;;;;;;;;5009186;28;20906;-84
2021/06/01 12:34:56;;;;;;;4.63;4.00;;;;;;;;;;5009843;28;20763;-84
2021/06/01 12:43:20;;;;;;;4.45;4.03;;;;;;;;;;5004940;28;20414;-84
2021/06/01 13:20:49;;;;;;;5.55;4.88;;;;;;;;;;5008459;28;20406;-85
2021/06/01 13:40:34;;;;;;;4.45;4.05;;;;;;;;;;5012350;28;20819;-86
2021/06/01 13:46:08;;;;;;;4.47;4.07;;;;;;;;;;5012683;28;20408;-85
2021/06/01 13:51:45;;;;;;;5.57;3.90;;;;;;;;;;5011730;28;20427;-85
2021/06/01 13:57:01;;;;;;;5.00;4.05;;;;;;;;;;5013011;28;20404;-85
2021/06/01 13:59:41;;;;;;;5.13;4.10;;;;;;;;;;5005034;28;20413;-85
2021/06/01 14:11:23;;;;;;;5.57;3.92;;;;;;;;;;5102177;28;20406;-84
2021/06/01 14:28:17;;;;;;;8.10;5.57;;;;;;;;;;5097002;28;20422;-83
2021/06/01 14:30:58;;;;;;;7.20;4.90;;;;;;;;;;5097774;28;20903;-84
2021/06/01 14:36:35;;;;;;;6.28;5.70;;;;;;;;;;5076549;28;20390;-87
2021/06/01 14:39:39;;;;;;;5.40;4.80;;;;;;;;;;5074759;28;20401;-86
2021/06/01 15:04:55;;;;;;;5.15;4.40;;;;;;;;;;5097928;28;20423;-85
2021/06/01 15:07:59;;;;;;;4.40;4.00;;;;;;;;;;5097225;28;20427;-85
2021/06/01 15:10:52;;;;;;;4.30;3.60;;;;;;;;;;5099516;27;20464;-85
2021/06/01 15:49:33;;;;;;;4.72;3.60;;;;;;;;;;5081772;28;20380;-84
2021/06/01 15:52:35;;;;;;;4.40;3.92;;;;;;;;;;5085162;28;20429;-83
2021/06/01 15:55:37;;;;;;;4.32;3.35;;;;;;;;;;5085442;28;20821;-83
2021/06/01 16:12:36;;;;;;;4.73;3.30;;;;;;;;;;5079702;28;20450;-84
2021/06/01 16:23:29;;;;;;;4.90;3.40;;;;;;;;;;5053244;28;20418;-84
2021/06/01 16:31:37;;;;;;;5.28;3.00;;;;;;;;;;5083321;28;20429;-84
2021/06/01 17:04:44;;;;;;;5.10;3.00;;;;;;;;;;5023245;28;20467;-81
2021/06/01 17:07:20;;;;;;;5.00;2.90;;;;;;;;;;5023013;28;20407;-79
2021/06/01 17:12:44;;;;;;;4.30;2.95;;;;;;;;;;5021911;28;20446;-82
2021/06/01 17:15:13;;;;;;;6.87;3.10;;;;;;;;;;5028491;28;20622;-81
2021/06/01 17:17:45;;;;;;;4.88;3.20;;;;;;;;;;5029119;28;20405;-78
2021/06/01 17:23:16;;;;;;;5.72;3.17;;;;;;;;;;5026457;28;20440;-79
2021/06/01 17:31:45;;;;;;;6.18;3.22;;;;;;;;;;5008638;28;21290;-79
2021/06/01 17:36:59;;;;;;;4.72;3.00;;;;;;;;;;5030512;28;20430;-82
2021/06/01 17:39:25;;;;;;;6.60;3.65;;;;;;;;;;5026611;28;20407;-81
2021/06/01 17:41:56;;;;;;;4.03;3.10;;;;;;;;;;5028343;28;20413;-81
2021/06/01 17:44:24;;;;;;;3.47;3.17;;;;;;;;;;5026581;28;20446;-82
2021/06/01 17:46:53;;;;;;;5.90;3.00;;;;;;;;;;5028514;28;20476;-83
2021/06/01 17:49:22;;;;;;;3.85;2.97;;;;;;;;;;5038464;28;20888;-82
2021/06/01 17:51:52;;;;;;;5.82;3.17;;;;;;;;;;5039539;28;20396;-82
2021/06/01 17:54:24;;;;;;;3.30;3.00;;;;;;;;;;5034683;28;20399;-81
2021/06/01 17:56:51;;;;;;;4.90;3.30;;;;;;;;;;5034401;28;20435;-82
2021/06/01 17:59:19;;;;;;;4.72;3.42;;;;;;;;;;5039418;28;20403;-82
2021/06/01 18:01:46;;;;;;;4.57;3.40;;;;;;;;;;5039006;28;20684;-81
2021/06/01 18:04:15;;;;;;;3.92;3.53;;;;;;;;;;5039205;28;20899;-82
2021/06/01 18:06:44;;;;;;;4.20;3.42;;;;;;;;;;5036725;28;20544;-81
2021/06/01 18:09:22;;;;;;;5.05;3.40;;;;;;;;;;5037278;28;20404;-82
2021/06/01 18:12:04;;;;;;;5.57;4.03;;;;;;;;;;5036395;28;20458;-82
2021/06/01 18:37:22;;;;;;;3.53;3.22;;;;;;;;;;5036353;28;20422;-83
2021/06/01 18:42:59;;;;;;;7.15;3.60;;;;;;;;;;5026522;28;20529;-83
2021/06/01 19:02:09;;;;;;;4.65;3.88;;;;;;;;;;5038022;28;20808;-81
2021/06/01 19:21:47;;;;;;;6.05;4.50;;;;;;;;;;5031417;28;20399;-82
2021/06/01 19:24:24;;;;;;;7.40;4.63;;;;;;;;;;5023883;28;20901;-83
2021/06/01 19:52:10;;;;;;;5.90;5.30;;;;;;;;;;5039553;28;20414;-81
2021/06/01 19:54:39;;;;;;;5.22;4.72;;;;;;;;;;5041385;28;20426;-80
2021/06/01 19:57:06;;;;;;;5.57;4.97;;;;;;;;;;5037966;28;20400;-82
2021/06/01 19:59:34;;;;;;;5.72;4.93;;;;;;;;;;5042696;28;20456;-83
2021/06/01 20:02:01;;;;;;;5.50;4.85;;;;;;;;;;5041157;28;20395;-82
2021/06/01 20:04:28;;;;;;;7.80;5.53;;;;;;;;;;5041906;28;20899;-81
2021/06/01 20:06:55;;;;;;;7.25;5.85;;;;;;;;;;5039726;28;20408;-81
2021/06/01 20:09:22;;;;;;;6.25;5.18;;;;;;;;;;5030848;28;20405;-82
2021/06/01 20:11:50;;;;;;;6.50;5.65;;;;;;;;;;5032460;28;20413;-81
2021/06/01 20:14:17;;;;;;;6.38;4.88;;;;;;;;;;5027269;28;20430;-82
2021/06/01 20:16:49;;;;;;;6.43;5.00;;;;;;;;;;5029341;28;20406;-82
2021/06/01 20:19:17;;;;;;;5.60;4.95;;;;;;;;;;5031081;28;20955;-82
2021/06/01 20:21:48;;;;;;;5.78;5.18;;;;;;;;;;5024660;28;20839;-84
2021/06/01 20:24:21;;;;;;;7.70;5.03;;;;;;;;;;5027035;28;20898;-83
2021/06/01 20:26:49;;;;;;;5.50;4.97;;;;;;;;;;5024453;28;20424;-82
2021/06/01 20:29:21;;;;;;;7.80;5.13;;;;;;;;;;5029729;28;20405;-79
2021/06/01 20:31:57;;;;;;;6.07;5.47;;;;;;;;;;5030618;28;20650;-82
2021/06/01 20:34:23;;;;;;;8.77;6.10;;;;;;;;;;5029055;28;20409;-82
2021/06/01 20:36:50;;;;;;;8.90;6.40;;;;;;;;;;5025248;28;20427;-81
2021/06/01 20:39:17;;;;;;;7.20;6.50;;;;;;;;;;5029092;28;20429;-83
2021/06/01 20:41:46;;;;;;;7.93;7.13;;;;;;;;;;5024054;28;20488;-83
2021/06/01 20:44:15;;;;;;;7.82;7.05;;;;;;;;;;5025401;28;20427;-83
2021/06/01 20:46:45;;;;;;;9.18;7.78;;;;;;;;;;5026660;28;21211;-83
2021/06/01 20:49:13;;;;;;;9.02;8.13;;;;;;;;;;5026222;28;20453;-82